Аэропорт: Шымкент. Шымкент

ICAO: UAII

METAR:
2021-07-28 13:30:00
UAII 281330Z 04005MPS 010V080 CAVOK 35/04 Q1000 R10/0///70 NOSIG RMK QFE715/0954
METAR:
2021-07-28 11:00:00
TAF UAII 281100Z 2812/2912 02003G08MPS CAVOK TX37/2910Z TN22/2900Z TEMPO 2812/2815 06006G11MPS SCT050CB TEMPO 2815/2903 08003G08MPS BECMG 2903/2905 27003G08MPS 8000 SCT050CB